DAL732 KLAX-KLAS
Flight info
| Callsign | DAL732 |
|---|---|
| Flight time | N/A |
| Altitude | 27000 |
| Route | ORCKA5 MISEN RNDRZ4 |
| Aircraft | A359/H-SDE2E3GHIJ3J4J5LM1ORWXY/LB1D1 |
Departure
| Time | 2026-04-25 22:18 |
|---|---|
| Airport | Los Angeles International Airport (KLAX) |
Arrival
| Time | N/A |
|---|---|
| Airport | Harry Reid International Airport (KLAS) |
| Time | Latitude | Longitude | Altitude | Speed | Heading |
|---|---|---|---|---|---|
| 2026-04-25 21:49 | 33.94521 | -118.41147 | 102 ft | 0 kts | 97° |
| 2026-04-25 22:04 | 33.94521 | -118.41148 | 99 ft | 2 kts | 97° |
| 2026-04-25 22:04 | 33.94524 | -118.41178 | 101 ft | 4 kts | 97° |
| 2026-04-25 22:04 | 33.94527 | -118.41204 | 98 ft | 4 kts | 106° |
| 2026-04-25 22:05 | 33.94538 | -118.41233 | 100 ft | 4 kts | 127° |
| 2026-04-25 22:05 | 33.94555 | -118.41254 | 97 ft | 4 kts | 147° |
| 2026-04-25 22:05 | 33.94557 | -118.41256 | 97 ft | 4 kts | 150° |
| 2026-04-25 22:05 | 33.94582 | -118.41267 | 100 ft | 3 kts | 172° |
| 2026-04-25 22:06 | 33.94607 | -118.41271 | 100 ft | 4 kts | 173° |
| 2026-04-25 22:06 | 33.94615 | -118.41273 | 100 ft | 0 kts | 173° |
| 2026-04-25 22:10 | 33.94596 | -118.41270 | 102 ft | 6 kts | 173° |
| 2026-04-25 22:10 | 33.94539 | -118.41261 | 101 ft | 10 kts | 172° |
| 2026-04-25 22:10 | 33.94456 | -118.41247 | 100 ft | 14 kts | 172° |
| 2026-04-25 22:11 | 33.94349 | -118.41232 | 100 ft | 17 kts | 173° |
| 2026-04-25 22:11 | 33.94239 | -118.41215 | 101 ft | 15 kts | 173° |
| 2026-04-25 22:11 | 33.94116 | -118.41197 | 100 ft | 20 kts | 173° |
| 2026-04-25 22:11 | 33.93965 | -118.41175 | 102 ft | 23 kts | 173° |
| 2026-04-25 22:12 | 33.93848 | -118.41159 | 102 ft | 17 kts | 173° |
| 2026-04-25 22:12 | 33.93777 | -118.41129 | 102 ft | 9 kts | 127° |
| 2026-04-25 22:12 | 33.93772 | -118.41035 | 100 ft | 14 kts | 84° |
| 2026-04-25 22:12 | 33.93780 | -118.40948 | 100 ft | 18 kts | 83° |
| 2026-04-25 22:13 | 33.93805 | -118.40720 | 102 ft | 24 kts | 83° |
| 2026-04-25 22:13 | 33.93826 | -118.40510 | 104 ft | 27 kts | 83° |
| 2026-04-25 22:13 | 33.93851 | -118.40270 | 102 ft | 31 kts | 83° |
| 2026-04-25 22:13 | 33.93878 | -118.40001 | 103 ft | 34 kts | 83° |
| 2026-04-25 22:14 | 33.93909 | -118.39701 | 102 ft | 38 kts | 83° |
| 2026-04-25 22:14 | 33.93941 | -118.39381 | 104 ft | 29 kts | 83° |
| 2026-04-25 22:14 | 33.93963 | -118.39174 | 102 ft | 25 kts | 83° |
| 2026-04-25 22:14 | 33.93986 | -118.38952 | 102 ft | 29 kts | 83° |
| 2026-04-25 22:15 | 33.94008 | -118.38734 | 101 ft | 27 kts | 83° |
| 2026-04-25 22:15 | 33.94030 | -118.38515 | 102 ft | 24 kts | 83° |
| 2026-04-25 22:15 | 33.94052 | -118.38301 | 105 ft | 28 kts | 83° |
| 2026-04-25 22:16 | 33.94073 | -118.38018 | 99 ft | 12 kts | 104° |
| 2026-04-25 22:16 | 33.94028 | -118.38000 | 102 ft | 9 kts | 176° |
| 2026-04-25 22:16 | 33.93989 | -118.38025 | 103 ft | 7 kts | 243° |
| 2026-04-25 22:16 | 33.93976 | -118.38094 | 101 ft | 8 kts | 263° |
| 2026-04-25 22:17 | 33.93976 | -118.38097 | 101 ft | 0 kts | 263° |
| 2026-04-25 22:17 | 33.93937 | -118.38477 | 106 ft | 92 kts | 263° |
| 2026-04-25 22:18 | 33.93829 | -118.39574 | 146 ft | 165 kts | 260° |
| 2026-04-25 22:18 | 33.93670 | -118.40924 | 1189 ft | 159 kts | 257° |
| 2026-04-25 22:18 | 33.93441 | -118.42244 | 2274 ft | 166 kts | 258° |
| 2026-04-25 22:18 | 33.93233 | -118.43669 | 3123 ft | 180 kts | 260° |
| 2026-04-25 22:19 | 33.93027 | -118.45216 | 3900 ft | 193 kts | 258° |
| 2026-04-25 22:19 | 33.92601 | -118.46816 | 4609 ft | 210 kts | 248° |
| 2026-04-25 22:19 | 33.92061 | -118.48543 | 4940 ft | 233 kts | 249° |
| 2026-04-25 22:19 | 33.91462 | -118.50458 | 5006 ft | 252 kts | 249° |
| 2026-04-25 22:20 | 33.90836 | -118.52453 | 4984 ft | 257 kts | 249° |
| 2026-04-25 22:20 | 33.90183 | -118.54465 | 5002 ft | 259 kts | 246° |
| 2026-04-25 22:20 | 33.89415 | -118.56431 | 4983 ft | 260 kts | 244° |
| 2026-04-25 22:20 | 33.88648 | -118.58391 | 5000 ft | 259 kts | 245° |
| 2026-04-25 22:21 | 33.87911 | -118.60354 | 5098 ft | 257 kts | 246° |
| 2026-04-25 22:21 | 33.87049 | -118.62267 | 5671 ft | 264 kts | 234° |
| 2026-04-25 22:21 | 33.85722 | -118.63798 | 6854 ft | 266 kts | 214° |
| 2026-04-25 22:21 | 33.83991 | -118.64575 | 8213 ft | 269 kts | 189° |
| 2026-04-25 22:22 | 33.82120 | -118.64313 | 9510 ft | 278 kts | 162° |
| 2026-04-25 22:22 | 33.80535 | -118.62923 | 10601 ft | 296 kts | 134° |
| 2026-04-25 22:22 | 33.79586 | -118.60592 | 11225 ft | 331 kts | 105° |
| 2026-04-25 22:22 | 33.79645 | -118.57738 | 12033 ft | 356 kts | 78° |
| 2026-04-25 22:23 | 33.80759 | -118.55032 | 12951 ft | 372 kts | 52° |
| 2026-04-25 22:23 | 33.82742 | -118.52957 | 13814 ft | 385 kts | 30° |
| 2026-04-25 22:23 | 33.85065 | -118.51266 | 14472 ft | 394 kts | 31° |
| 2026-04-25 22:23 | 33.87334 | -118.49387 | 14866 ft | 398 kts | 36° |
| 2026-04-25 22:24 | 33.89511 | -118.47322 | 14994 ft | 400 kts | 39° |
| 2026-04-25 22:24 | 33.91627 | -118.45144 | 14998 ft | 401 kts | 41° |
| 2026-04-25 22:24 | 33.93542 | -118.42701 | 15002 ft | 402 kts | 53° |
| 2026-04-25 22:24 | 33.95176 | -118.39974 | 15119 ft | 402 kts | 57° |
| 2026-04-25 22:25 | 33.96766 | -118.37182 | 15724 ft | 406 kts | 57° |
| 2026-04-25 22:25 | 33.98341 | -118.34402 | 16776 ft | 409 kts | 57° |
| 2026-04-25 22:25 | 33.99952 | -118.31557 | 17845 ft | 413 kts | 57° |
| 2026-04-25 22:25 | 34.01584 | -118.28684 | 18601 ft | 418 kts | 56° |
| 2026-04-25 22:26 | 34.03250 | -118.25764 | 19335 ft | 426 kts | 56° |
| 2026-04-25 22:26 | 34.04933 | -118.22798 | 20166 ft | 432 kts | 57° |
| 2026-04-25 22:26 | 34.06639 | -118.19786 | 20978 ft | 439 kts | 57° |
| 2026-04-25 22:26 | 34.08376 | -118.16717 | 21766 ft | 446 kts | 57° |
| 2026-04-25 22:27 | 34.10130 | -118.13616 | 22545 ft | 454 kts | 57° |
| 2026-04-25 22:27 | 34.11936 | -118.10421 | 23342 ft | 461 kts | 57° |
| 2026-04-25 22:27 | 34.13761 | -118.07200 | 24044 ft | 468 kts | 57° |
| 2026-04-25 22:27 | 34.15597 | -118.03942 | 24764 ft | 472 kts | 57° |
| 2026-04-25 22:28 | 34.17451 | -118.00644 | 25525 ft | 476 kts | 57° |
| 2026-04-25 22:28 | 34.19322 | -117.97315 | 26224 ft | 481 kts | 57° |
| 2026-04-25 22:28 | 34.21205 | -117.93963 | 26738 ft | 485 kts | 57° |
| 2026-04-25 22:28 | 34.23099 | -117.90588 | 26923 ft | 481 kts | 57° |
| 2026-04-25 22:29 | 34.23780 | -117.89376 | 26922 ft | 476 kts | 56° |